createdAt,value
2023-03-22T00:01:58.748Z,85.53
2023-03-22T00:07:06.246Z,85.20
2023-03-22T00:12:10.374Z,85.67
2023-03-22T00:17:14.244Z,85.68
2023-03-22T00:22:25.689Z,86.11
2023-03-22T00:27:36.682Z,85.86
2023-03-22T00:32:38.829Z,85.79
2023-03-22T00:37:41.490Z,85.90
2023-03-22T00:42:52.419Z,86.02
2023-03-22T00:48:02.504Z,86.17
2023-03-22T00:53:07.112Z,86.43
2023-03-22T00:58:32.763Z,86.70
2023-03-22T01:03:41.947Z,86.60
2023-03-22T01:08:45.064Z,86.55
2023-03-22T01:13:48.035Z,86.77
2023-03-22T01:18:51.747Z,86.41
2023-03-22T01:23:53.837Z,86.64
2023-03-22T01:28:56.441Z,86.69
2023-03-22T01:33:58.566Z,86.66
2023-03-22T01:39:03.789Z,86.82
2023-03-22T01:44:12.696Z,86.86
2023-03-22T01:49:32.416Z,86.59
2023-03-22T01:54:45.968Z,86.84
2023-03-22T02:00:34.054Z,86.90
2023-03-22T02:05:47.843Z,86.81
2023-03-22T02:10:56.991Z,86.86
2023-03-22T02:16:49.716Z,87.30
2023-03-22T02:22:16.538Z,87.33
2023-03-22T02:28:02.927Z,87.49
2023-03-22T02:33:32.002Z,87.60
2023-03-22T02:39:05.359Z,87.49
2023-03-22T02:44:43.395Z,87.03
2023-03-22T02:49:57.004Z,87.18
2023-03-22T02:55:21.094Z,87.34
2023-03-22T03:00:30.590Z,87.82
2023-03-22T03:05:36.298Z,87.96
2023-03-22T03:10:52.799Z,88.11
2023-03-22T03:15:59.730Z,88.33
2023-03-22T03:21:36.622Z,88.37
2023-03-22T03:27:03.380Z,88.26
2023-03-22T03:32:32.738Z,88.34
2023-03-22T03:37:47.207Z,88.24
2023-03-22T03:42:53.244Z,87.79
2023-03-22T03:48:04.263Z,87.42
2023-03-22T03:53:13.952Z,87.95
2023-03-22T03:58:16.833Z,88.02
2023-03-22T04:03:19.545Z,87.75
2023-03-22T04:08:45.896Z,87.70
2023-03-22T04:13:52.642Z,87.94
2023-03-22T04:18:56.972Z,87.65
2023-03-22T04:23:59.561Z,87.35
2023-03-22T04:29:26.310Z,87.24
2023-03-22T04:34:36.104Z,87.45
2023-03-22T04:39:40.609Z,87.31
2023-03-22T04:45:05.354Z,87.34
2023-03-22T04:50:09.692Z,87.23
2023-03-22T04:55:38.936Z,87.24
2023-03-22T05:00:44.093Z,87.26
2023-03-22T05:05:53.437Z,86.99
2023-03-22T05:11:01.830Z,87.00
2023-03-22T05:16:06.167Z,87.31
2023-03-22T05:21:35.493Z,87.23
2023-03-22T05:27:06.289Z,87.31
2023-03-22T05:32:16.102Z,87.30
2023-03-22T05:37:21.211Z,87.45
2023-03-22T05:42:32.764Z,87.28
2023-03-22T05:47:36.203Z,87.66
2023-03-22T05:52:46.654Z,87.59
2023-03-22T05:58:05.196Z,87.75
2023-03-22T06:03:18.514Z,87.45
2023-03-22T06:08:27.307Z,87.14
2023-03-22T06:13:30.042Z,87.52
2023-03-22T06:18:33.378Z,87.01
2023-03-22T06:23:44.031Z,86.74
2023-03-22T06:28:49.093Z,86.65
2023-03-22T06:34:14.440Z,86.49
2023-03-22T06:39:36.436Z,86.08
2023-03-22T06:44:46.286Z,85.95
2023-03-22T06:50:03.170Z,85.66
2023-03-22T06:55:29.965Z,85.70
2023-03-22T07:00:34.254Z,85.64
2023-03-22T07:05:36.651Z,85.15
2023-03-22T07:10:40.121Z,84.54
2023-03-22T07:15:56.542Z,84.38
2023-03-22T07:21:15.449Z,84.20
2023-03-22T07:26:18.763Z,84.00
2023-03-22T07:31:23.779Z,83.49
2023-03-22T07:36:38.896Z,83.01
2023-03-22T07:41:43.477Z,82.55
2023-03-22T07:47:15.575Z,82.17
2023-03-22T07:52:37.325Z,81.66
2023-03-22T07:57:39.855Z,81.14
2023-03-22T08:02:46.028Z,81.46
2023-03-22T08:08:09.875Z,80.23
2023-03-22T08:13:12.492Z,78.38
2023-03-22T08:18:15.564Z,77.93
2023-03-22T08:23:22.609Z,77.90
2023-03-22T08:28:47.318Z,78.16
2023-03-22T08:33:50.358Z,77.91
2023-03-22T08:38:53.253Z,77.32
2023-03-22T08:43:58.606Z,76.72
2023-03-22T08:49:06.095Z,76.75
2023-03-22T08:54:16.621Z,76.15
2023-03-22T08:59:28.408Z,75.58
2023-03-22T09:05:09.266Z,75.06
2023-03-22T09:10:12.276Z,75.05
2023-03-22T09:15:17.078Z,75.18
2023-03-22T09:20:26.420Z,74.77
2023-03-22T09:25:42.427Z,73.93
2023-03-22T09:31:02.947Z,73.34
2023-03-22T09:36:13.210Z,72.44
2023-03-22T09:41:39.794Z,71.83
2023-03-22T09:46:49.375Z,71.98
2023-03-22T09:51:53.538Z,71.36
2023-03-22T09:57:15.657Z,70.98
2023-03-22T10:02:43.586Z,70.20
2023-03-22T10:08:06.930Z,69.93
2023-03-22T10:13:31.635Z,70.52
2023-03-22T10:18:43.483Z,70.32
2023-03-22T10:23:57.910Z,69.21
2023-03-22T10:29:11.809Z,68.48
2023-03-22T10:34:28.160Z,67.89
2023-03-22T10:39:35.766Z,67.82
2023-03-22T10:44:50.689Z,67.49
2023-03-22T10:50:03.592Z,67.29
2023-03-22T10:55:11.049Z,67.76
2023-03-22T11:00:17.534Z,67.78
2023-03-22T11:05:28.299Z,66.89
2023-03-22T11:10:34.989Z,66.41
2023-03-22T11:16:01.400Z,66.00
2023-03-22T11:21:11.431Z,66.15
2023-03-22T11:26:28.583Z,66.26
2023-03-22T11:31:57.472Z,66.14
2023-03-22T11:37:01.282Z,65.11
2023-03-22T11:42:06.701Z,65.53
2023-03-22T11:47:22.173Z,65.94
2023-03-22T11:52:34.253Z,65.72
2023-03-22T11:57:37.924Z,65.58
2023-03-22T12:02:54.946Z,66.10
2023-03-22T12:08:16.095Z,65.02
2023-03-22T12:13:27.736Z,64.90
2023-03-22T12:18:44.531Z,63.91
2023-03-22T12:23:50.008Z,64.00
2023-03-22T12:29:18.273Z,63.73
2023-03-22T12:34:25.894Z,63.49
2023-03-22T12:39:34.946Z,62.76
2023-03-22T12:45:05.129Z,62.23
2023-03-22T12:50:40.538Z,62.14
2023-03-22T12:55:47.639Z,61.61
2023-03-22T13:01:17.797Z,61.73
2023-03-22T13:07:05.076Z,61.22
2023-03-22T13:12:18.939Z,61.28
2023-03-22T13:17:43.048Z,61.07
2023-03-22T13:23:13.976Z,61.36
2023-03-22T13:28:27.286Z,61.54
2023-03-22T13:33:34.874Z,61.13
2023-03-22T13:38:42.980Z,60.97
2023-03-22T13:44:46.031Z,61.31
2023-03-22T13:50:02.227Z,60.74
2023-03-22T13:55:36.803Z,60.25
2023-03-22T14:00:44.771Z,60.25
2023-03-22T14:06:35.393Z,60.01
2023-03-22T14:12:06.842Z,60.26
2023-03-22T14:17:39.350Z,60.22
